createdAt,value
2023-09-07T00:00:55.137Z,24.4000
2023-09-07T00:01:57.396Z,24.4100
2023-09-07T00:02:59.657Z,24.4100
2023-09-07T00:04:02.018Z,24.4000
2023-09-07T00:05:04.045Z,24.3900
2023-09-07T00:06:06.173Z,24.3900
2023-09-07T00:07:08.396Z,24.3900
2023-09-07T00:08:10.551Z,24.3800
2023-09-07T00:09:12.753Z,24.3800
2023-09-07T00:10:15.034Z,24.3800
2023-09-07T00:11:15.043Z,24.3800
2023-09-07T00:12:17.203Z,24.3700
2023-09-07T00:13:19.409Z,24.3600
2023-09-07T00:14:21.486Z,24.3600
2023-09-07T00:15:23.618Z,24.3600
2023-09-07T00:16:25.916Z,24.3600
2023-09-07T00:17:27.992Z,24.3600
2023-09-07T00:18:30.467Z,24.3700
2023-09-07T00:19:32.384Z,24.3700
2023-09-07T00:20:34.603Z,24.3700
2023-09-07T00:21:36.749Z,24.3600
2023-09-07T00:22:38.952Z,24.3600
2023-09-07T00:23:41.139Z,24.3500
2023-09-07T00:24:43.220Z,24.3500
2023-09-07T00:25:45.361Z,24.3500
2023-09-07T00:26:47.555Z,24.3400
2023-09-07T00:27:49.660Z,24.3500
2023-09-07T00:28:51.824Z,24.3500
2023-09-07T00:29:53.997Z,24.3400
2023-09-07T00:30:56.122Z,24.3300
2023-09-07T00:31:58.339Z,24.3300
2023-09-07T00:33:00.411Z,24.3200
2023-09-07T00:34:02.582Z,24.3300
2023-09-07T00:35:04.725Z,24.3300
2023-09-07T00:36:06.889Z,24.3400
2023-09-07T00:37:09.201Z,24.3400
2023-09-07T00:38:11.209Z,24.3400
2023-09-07T00:39:13.352Z,24.3400
2023-09-07T00:40:15.592Z,24.3300
2023-09-07T00:41:17.665Z,24.3200
2023-09-07T00:42:19.761Z,24.3200
2023-09-07T00:43:21.886Z,24.3200
2023-09-07T00:44:24.007Z,24.3200
2023-09-07T00:45:26.187Z,24.3100
2023-09-07T00:46:28.287Z,24.3100
2023-09-07T00:47:30.640Z,24.3000
2023-09-07T00:48:32.920Z,24.2900
2023-09-07T00:49:34.740Z,24.2800
2023-09-07T00:50:36.900Z,24.2800
2023-09-07T00:51:39.088Z,24.2700
2023-09-07T00:52:41.421Z,24.2700
2023-09-07T00:53:43.408Z,24.2600
2023-09-07T00:54:45.514Z,24.2500
2023-09-07T00:55:47.666Z,24.2500
2023-09-07T00:56:49.841Z,24.2400
2023-09-07T00:57:52.098Z,24.2400
2023-09-07T01:00:13.698Z,24.3400
2023-09-07T01:01:15.886Z,24.4000
2023-09-07T01:02:18.050Z,24.4300
2023-09-07T01:03:20.319Z,24.4400
2023-09-07T01:04:22.258Z,24.4700
2023-09-07T01:05:24.391Z,24.4700
2023-09-07T01:06:26.522Z,24.4800
2023-09-07T01:07:28.676Z,24.4700
2023-09-07T01:08:31.113Z,24.4800
2023-09-07T01:09:32.998Z,24.4800
2023-09-07T01:10:35.164Z,24.4800
2023-09-07T01:11:37.399Z,24.4800
2023-09-07T01:12:39.517Z,24.4800
2023-09-07T01:13:41.772Z,24.4800
2023-09-07T01:14:43.865Z,24.4800
2023-09-07T01:15:46.068Z,24.4800
2023-09-07T01:16:48.367Z,24.4800
2023-09-07T01:17:50.507Z,24.4800
2023-09-07T01:18:52.628Z,24.4800
2023-09-07T01:19:54.814Z,24.4800
2023-09-07T01:20:56.934Z,24.4800
2023-09-07T01:21:56.955Z,24.4700
2023-09-07T01:22:59.199Z,24.4700
2023-09-07T01:24:01.363Z,24.4700
2023-09-07T01:25:03.381Z,24.4600
2023-09-07T01:26:05.592Z,24.4600
2023-09-07T01:27:07.664Z,24.4500
2023-09-07T01:28:09.766Z,24.4500
2023-09-07T01:29:11.886Z,24.4400
2023-09-07T01:30:14.002Z,24.4400
2023-09-07T01:31:16.114Z,24.4300
2023-09-07T01:32:18.294Z,24.4300
2023-09-07T01:33:20.323Z,24.4100
2023-09-07T01:34:22.458Z,24.4100
2023-09-07T01:35:24.655Z,24.4100
2023-09-07T01:38:52.765Z,24.2400
2023-09-07T01:39:54.940Z,24.3200
2023-09-07T01:40:56.970Z,24.3600
2023-09-07T01:41:59.031Z,24.3900
2023-09-07T01:43:01.136Z,24.4100
2023-09-07T01:44:03.427Z,24.4200
2023-09-07T01:45:05.392Z,24.4200
2023-09-07T01:46:07.411Z,24.4200
2023-09-07T01:47:09.566Z,24.4200
2023-09-07T01:48:11.776Z,24.4200
2023-09-07T01:49:13.712Z,24.4200
2023-09-07T01:50:15.839Z,24.4100
2023-09-07T01:51:16.838Z,24.3800
2023-09-07T01:52:18.934Z,24.2700
2023-09-07T01:53:21.048Z,24.2100
2023-09-07T01:54:23.189Z,24.1700
2023-09-07T01:55:25.371Z,24.1400
2023-09-07T01:56:27.553Z,24.1200
2023-09-07T01:57:29.549Z,24.1200
2023-09-07T01:58:32.051Z,24.1100
2023-09-07T01:59:33.831Z,24.0900
2023-09-07T02:00:36.003Z,24.0800
2023-09-07T02:01:38.381Z,24.0800
2023-09-07T02:02:40.381Z,24.0800
2023-09-07T02:03:42.607Z,24.0800
2023-09-07T02:04:44.792Z,24.0700
2023-09-07T02:05:47.110Z,24.0700
2023-09-07T02:06:49.178Z,24.0600
2023-09-07T02:07:51.423Z,24.0600
2023-09-07T02:08:53.501Z,24.0500
2023-09-07T02:09:55.647Z,24.0500
2023-09-07T02:10:57.882Z,24.0500
2023-09-07T02:11:59.999Z,24.0500
2023-09-07T02:13:02.147Z,24.0500
2023-09-07T02:14:04.318Z,24.0400
2023-09-07T02:15:06.424Z,24.0400
2023-09-07T02:16:08.633Z,24.0400
2023-09-07T02:17:10.820Z,24.0300
2023-09-07T02:18:12.968Z,24.0300
2023-09-07T02:19:15.151Z,24.0300
2023-09-07T02:20:17.290Z,24.0300
2023-09-07T02:21:19.475Z,24.0400
2023-09-07T02:22:21.624Z,24.0400
2023-09-07T02:23:23.824Z,24.0400
2023-09-07T02:24:25.912Z,24.0300
2023-09-07T02:25:28.095Z,24.0300
2023-09-07T02:26:30.391Z,24.0300
2023-09-07T02:27:32.372Z,24.0300
2023-09-07T02:28:34.643Z,24.0200
2023-09-07T02:29:36.721Z,24.0200
2023-09-07T02:30:38.835Z,24.0100
2023-09-07T02:31:40.923Z,24.0000
2023-09-07T02:32:43.039Z,24.0000
2023-09-07T02:33:45.136Z,23.9900
2023-09-07T02:34:47.232Z,23.9800
2023-09-07T02:35:49.347Z,23.9800
2023-09-07T02:36:51.469Z,23.9700
2023-09-07T02:37:53.580Z,23.9700
2023-09-07T02:38:55.802Z,23.9800
2023-09-07T02:39:57.918Z,23.9800
2023-09-07T02:41:00.085Z,23.9800
2023-09-07T02:42:02.289Z,23.9700
2023-09-07T02:43:04.444Z,23.9700
2023-09-07T02:45:09.025Z,23.9600
2023-09-07T02:46:11.159Z,23.9600
2023-09-07T02:47:13.380Z,23.9600
2023-09-07T02:48:15.641Z,23.9500
2023-09-07T02:49:17.778Z,23.9400
2023-09-07T02:50:17.917Z,23.9400
2023-09-07T02:51:20.130Z,23.9400
2023-09-07T02:52:22.309Z,23.9400
2023-09-07T02:53:24.493Z,23.9400
2023-09-07T02:54:26.677Z,23.9400
2023-09-07T02:55:26.737Z,23.9300
2023-09-07T02:56:28.894Z,23.9300
2023-09-07T02:57:31.069Z,23.9300
2023-09-07T02:58:33.564Z,23.9300
2023-09-07T02:59:35.451Z,23.9200
2023-09-07T03:00:37.657Z,23.9200
2023-09-07T03:01:39.995Z,23.9100
2023-09-07T03:02:42.233Z,23.9100
2023-09-07T03:03:44.563Z,23.9000
2023-09-07T03:04:46.726Z,23.9000
2023-09-07T03:05:48.928Z,23.8900
2023-09-07T03:06:51.180Z,23.8900
2023-09-07T03:07:53.369Z,23.8900
2023-09-07T03:08:55.547Z,23.8900
2023-09-07T03:09:57.756Z,23.8800
2023-09-07T03:10:59.935Z,23.8800
2023-09-07T03:12:02.136Z,23.8800
2023-09-07T03:13:04.338Z,23.8700
2023-09-07T03:14:06.527Z,23.8800
2023-09-07T03:15:08.731Z,23.8800
2023-09-07T03:16:11.056Z,23.8900
2023-09-07T03:17:13.235Z,23.8900
2023-09-07T03:18:15.358Z,23.8800
2023-09-07T03:19:17.522Z,23.8900
2023-09-07T03:20:19.651Z,23.8800
2023-09-07T03:21:21.873Z,23.8700
2023-09-07T03:22:24.132Z,23.8700
2023-09-07T03:23:26.260Z,23.8700
2023-09-07T03:24:28.401Z,23.8700
2023-09-07T03:26:30.748Z,23.9700
2023-09-07T03:27:32.847Z,24.0300
2023-09-07T03:28:35.314Z,24.0500
2023-09-07T03:29:37.015Z,24.0600
2023-09-07T03:30:39.115Z,24.0800
2023-09-07T03:31:41.339Z,24.0800
2023-09-07T03:32:43.341Z,24.0900
2023-09-07T03:33:45.451Z,24.0900
2023-09-07T03:34:47.563Z,24.0900
2023-09-07T03:35:49.752Z,24.0800
2023-09-07T03:36:51.986Z,24.0800
2023-09-07T03:37:54.083Z,24.0800
2023-09-07T03:38:56.342Z,24.0800
2023-09-07T03:39:58.446Z,24.0900
2023-09-07T03:41:00.626Z,24.0900
2023-09-07T03:42:02.781Z,24.0900
2023-09-07T03:43:04.970Z,24.0900
2023-09-07T03:44:07.137Z,24.1000
2023-09-07T03:45:09.286Z,24.1000
2023-09-07T03:46:11.557Z,24.1100
2023-09-07T03:47:13.677Z,24.1000
2023-09-07T03:48:15.855Z,24.0900
2023-09-07T03:49:18.130Z,24.0800
2023-09-07T03:50:20.217Z,24.0600
2023-09-07T03:51:22.422Z,24.0500
2023-09-07T03:52:24.638Z,24.0300
2023-09-07T03:53:24.694Z,24.0100
2023-09-07T03:54:26.916Z,24.0100
2023-09-07T03:55:29.029Z,24.0000
2023-09-07T03:56:31.155Z,24.0000
2023-09-07T03:57:31.210Z,23.9900
2023-09-07T03:58:33.721Z,23.9800
2023-09-07T03:59:35.491Z,23.9700
2023-09-07T04:00:37.620Z,23.9500
2023-09-07T04:01:39.932Z,23.9300
2023-09-07T04:02:42.100Z,23.9200
2023-09-07T04:03:44.281Z,23.9300
2023-09-07T04:04:46.317Z,23.9200
2023-09-07T04:05:48.432Z,23.9200
2023-09-07T04:06:50.561Z,23.9200
2023-09-07T04:07:52.732Z,23.9200
2023-09-07T04:08:54.904Z,23.9200
2023-09-07T04:09:57.078Z,23.9100
2023-09-07T04:10:59.210Z,23.9100
2023-09-07T04:12:01.378Z,23.9200
2023-09-07T04:13:03.492Z,23.9300
2023-09-07T04:14:05.654Z,23.9300
2023-09-07T04:15:07.862Z,23.9400
2023-09-07T04:16:09.982Z,23.9500
2023-09-07T04:17:12.180Z,23.9600
2023-09-07T04:18:14.376Z,23.9600
2023-09-07T04:19:16.556Z,23.9700
2023-09-07T04:20:18.736Z,23.9700
2023-09-07T04:21:20.997Z,23.9700
2023-09-07T04:22:23.127Z,23.9700
2023-09-07T04:23:25.361Z,23.9700
2023-09-07T04:24:25.430Z,23.9700
2023-09-07T04:25:27.620Z,23.9600
2023-09-07T04:26:29.826Z,23.9600
2023-09-07T04:27:32.110Z,23.9600
2023-09-07T04:28:34.266Z,23.9500
2023-09-07T04:29:36.443Z,23.9400
2023-09-07T04:30:38.701Z,23.9500
2023-09-07T04:31:40.929Z,23.9500
2023-09-07T04:32:43.135Z,23.9500
2023-09-07T04:33:45.257Z,23.9600
2023-09-07T04:34:47.484Z,23.9600
2023-09-07T04:35:49.729Z,23.9600
2023-09-07T04:36:51.917Z,23.9500
2023-09-07T04:37:54.115Z,23.9500
2023-09-07T04:38:56.363Z,23.9400
2023-09-07T04:39:56.384Z,23.9400
2023-09-07T04:40:58.652Z,23.9500
2023-09-07T04:42:00.818Z,23.9600
2023-09-07T04:43:03.004Z,23.9500
2023-09-07T04:44:05.189Z,23.9500
2023-09-07T04:45:07.388Z,23.9400
2023-09-07T04:46:09.658Z,23.9400
2023-09-07T04:47:11.788Z,23.9400
2023-09-07T04:48:13.889Z,23.9400
2023-09-07T04:49:16.049Z,23.9400
2023-09-07T04:50:18.267Z,23.9400
2023-09-07T04:51:20.395Z,23.9300
2023-09-07T04:52:22.618Z,23.9300
2023-09-07T04:53:24.807Z,23.9200
2023-09-07T04:54:27.048Z,23.9200
2023-09-07T04:55:29.229Z,23.9100
2023-09-07T04:56:31.527Z,23.9000
2023-09-07T04:57:33.658Z,23.8900
2023-09-07T04:58:35.863Z,23.8800
2023-09-07T05:00:44.590Z,23.8400
2023-09-07T05:01:46.699Z,23.8400
2023-09-07T05:02:48.872Z,23.8500
2023-09-07T05:03:51.024Z,23.8600
2023-09-07T05:04:53.115Z,23.8600
2023-09-07T05:05:55.310Z,23.8600
2023-09-07T05:06:57.520Z,23.8700
2023-09-07T05:07:59.668Z,23.8700
2023-09-07T05:09:01.834Z,23.8700
2023-09-07T05:10:04.100Z,23.8800
2023-09-07T05:11:06.241Z,23.8800
2023-09-07T05:12:08.400Z,23.8900
2023-09-07T05:13:10.586Z,23.8900
2023-09-07T05:14:12.811Z,23.8900
2023-09-07T05:15:12.861Z,23.9000
2023-09-07T05:16:15.102Z,23.8900
2023-09-07T05:17:17.257Z,23.8900
2023-09-07T05:18:19.457Z,23.8900
2023-09-07T05:19:21.614Z,23.8900
2023-09-07T05:20:23.804Z,23.8500
2023-09-07T05:21:26.067Z,23.7000
2023-09-07T05:22:28.367Z,23.5200
2023-09-07T05:23:30.476Z,23.3400
2023-09-07T05:24:32.686Z,23.1700
2023-09-07T05:25:34.923Z,23.0200
2023-09-07T05:26:37.200Z,22.8800
2023-09-07T05:27:39.460Z,22.7800
2023-09-07T05:28:39.463Z,22.7000
2023-09-07T05:29:41.712Z,22.6100
2023-09-07T05:30:44.061Z,22.5400
2023-09-07T05:31:46.209Z,22.5000
2023-09-07T05:32:48.557Z,22.4300
2023-09-07T05:33:50.644Z,22.3900
2023-09-07T05:34:52.810Z,22.3700
2023-09-07T05:35:55.069Z,22.3100
2023-09-07T05:36:55.897Z,22.2400
2023-09-07T05:37:57.392Z,22.2300
2023-09-07T05:38:59.624Z,22.2000
2023-09-07T05:40:01.944Z,22.1800
2023-09-07T05:41:04.156Z,22.1700
2023-09-07T05:42:06.363Z,22.1700
2023-09-07T05:43:08.672Z,22.1300
2023-09-07T05:44:10.787Z,22.1000
2023-09-07T05:45:13.017Z,22.1000
2023-09-07T05:46:15.263Z,22.0800
2023-09-07T05:47:17.457Z,22.0800
2023-09-07T05:48:19.708Z,22.0600
2023-09-07T05:49:19.779Z,22.0600
2023-09-07T05:50:21.964Z,22.0800
2023-09-07T05:51:24.145Z,22.0800
2023-09-07T05:52:26.381Z,22.0800
2023-09-07T05:53:28.609Z,22.0300
2023-09-07T05:54:30.831Z,22.0200
2023-09-07T05:55:33.048Z,22.0300
2023-09-07T05:56:35.267Z,22.0200
2023-09-07T05:57:37.500Z,21.9900
2023-09-07T05:58:39.917Z,21.9600
2023-09-07T05:59:42.024Z,21.9000
2023-09-07T06:00:44.366Z,21.8600
2023-09-07T06:01:44.415Z,21.8500
2023-09-07T06:02:46.793Z,21.8600
2023-09-07T06:03:49.091Z,21.8800
2023-09-07T06:04:51.186Z,21.9200
2023-09-07T06:06:38.616Z,21.9500
2023-09-07T06:07:40.783Z,21.9700
2023-09-07T06:08:42.983Z,21.9800
2023-09-07T06:09:45.230Z,21.9500
2023-09-07T06:10:47.428Z,21.9400
2023-09-07T06:11:49.747Z,21.9300
2023-09-07T06:12:51.887Z,21.9300
2023-09-07T06:13:51.939Z,21.9000
2023-09-07T06:14:54.140Z,21.9100
2023-09-07T06:15:56.347Z,21.9200
2023-09-07T06:16:58.599Z,21.9400
2023-09-07T06:18:00.824Z,21.9700
2023-09-07T06:19:02.905Z,22.0200
2023-09-07T06:20:05.105Z,22.0000
2023-09-07T06:21:06.065Z,21.9800
2023-09-07T06:22:08.272Z,21.9000
2023-09-07T06:23:10.435Z,21.8700
2023-09-07T06:24:12.611Z,21.8300
2023-09-07T06:25:14.936Z,21.8000
2023-09-07T06:26:17.051Z,21.8000
2023-09-07T06:27:19.303Z,21.8000
2023-09-07T06:28:21.527Z,21.7900
2023-09-07T06:29:23.731Z,21.7800
2023-09-07T06:30:26.036Z,21.7700
2023-09-07T06:31:28.482Z,21.7400
2023-09-07T06:32:30.635Z,21.7200
2023-09-07T06:33:32.779Z,21.7000
2023-09-07T06:34:35.113Z,21.6700
2023-09-07T06:35:37.379Z,21.6300
2023-09-07T06:36:47.207Z,21.6300
2023-09-07T06:37:39.778Z,21.6300
2023-09-07T06:38:41.998Z,21.6200
2023-09-07T06:39:44.167Z,21.6200
2023-09-07T06:40:46.391Z,21.6000
2023-09-07T06:41:48.629Z,21.5600
2023-09-07T06:42:50.885Z,21.5600
2023-09-07T06:43:53.075Z,21.5700
2023-09-07T06:44:55.280Z,21.6000
2023-09-07T06:45:55.436Z,21.6100
2023-09-07T06:46:57.614Z,21.6200
2023-09-07T06:47:59.915Z,21.6300
2023-09-07T06:49:02.102Z,21.6400
2023-09-07T06:50:04.345Z,21.6300
2023-09-07T06:51:06.726Z,21.6400
2023-09-07T06:52:08.997Z,21.6600
2023-09-07T06:53:11.123Z,21.6500
2023-09-07T06:54:11.339Z,21.6600
2023-09-07T06:55:13.517Z,21.6900
2023-09-07T06:56:15.784Z,21.7000
2023-09-07T06:57:18.055Z,21.7200
2023-09-07T06:58:18.236Z,21.7300
2023-09-07T06:59:20.429Z,21.7400
2023-09-07T07:00:22.680Z,21.7700
2023-09-07T07:01:24.981Z,21.7700
2023-09-07T07:02:27.257Z,21.7800
2023-09-07T07:03:29.546Z,21.7800
2023-09-07T07:04:31.760Z,21.7800
2023-09-07T07:05:33.931Z,21.7900
2023-09-07T07:06:34.064Z,21.8000
2023-09-07T07:07:36.332Z,21.7800
2023-09-07T07:08:38.505Z,21.7900
2023-09-07T07:09:40.742Z,21.7800
2023-09-07T07:11:51.782Z,21.8700
2023-09-07T07:12:53.882Z,21.9100
2023-09-07T07:13:56.147Z,21.9300
2023-09-07T07:14:58.261Z,21.9400
2023-09-07T07:16:00.523Z,21.9500
2023-09-07T07:17:02.865Z,21.9400
2023-09-07T07:18:02.884Z,21.9500
2023-09-07T07:19:05.026Z,21.9600
2023-09-07T07:20:07.275Z,21.9800
2023-09-07T07:21:09.466Z,21.9800
2023-09-07T07:23:16.299Z,21.9400
2023-09-07T07:24:18.414Z,21.9500
2023-09-07T07:25:20.568Z,22.0000
2023-09-07T07:26:22.738Z,22.0400
2023-09-07T07:27:24.901Z,22.0700
2023-09-07T07:28:27.193Z,22.0700
2023-09-07T07:29:31.655Z,22.0800
2023-09-07T07:30:31.461Z,22.0300
2023-09-07T07:31:33.669Z,22.0200
2023-09-07T07:32:35.893Z,22.0500
2023-09-07T07:33:38.180Z,22.0600
2023-09-07T07:34:40.252Z,22.0800
2023-09-07T07:35:42.446Z,22.0900
2023-09-07T07:36:44.597Z,22.0900
2023-09-07T07:37:46.789Z,22.1200
2023-09-07T07:38:49.073Z,22.1300
2023-09-07T07:39:51.234Z,22.1300
2023-09-07T07:40:53.427Z,22.1400
2023-09-07T07:41:55.631Z,22.1700
2023-09-07T07:42:55.831Z,22.1900
2023-09-07T07:43:57.935Z,22.2000
2023-09-07T07:45:00.147Z,22.2200
2023-09-07T07:46:02.412Z,22.2100
2023-09-07T07:47:04.514Z,22.2300
2023-09-07T07:48:06.662Z,22.2200
2023-09-07T07:49:08.847Z,22.2200
2023-09-07T07:50:10.923Z,22.2200
2023-09-07T07:51:13.183Z,22.2300
2023-09-07T07:52:15.265Z,22.2300
2023-09-07T07:53:17.476Z,22.2200
2023-09-07T07:54:19.669Z,22.2200
2023-09-07T07:55:21.855Z,22.2200
2023-09-07T07:56:24.023Z,22.2300
2023-09-07T07:57:26.183Z,22.2300
2023-09-07T07:58:28.337Z,22.2300
2023-09-07T07:59:30.524Z,22.2400
2023-09-07T08:00:32.667Z,22.2400
2023-09-07T08:01:34.911Z,22.2300
2023-09-07T08:02:37.089Z,22.2500
2023-09-07T08:03:39.316Z,22.2900
2023-09-07T08:04:41.619Z,22.3300
2023-09-07T08:05:43.634Z,22.3500
2023-09-07T08:06:43.681Z,22.3600
2023-09-07T08:07:45.910Z,22.3800
2023-09-07T08:08:48.025Z,22.3900
2023-09-07T08:09:50.239Z,22.4100
2023-09-07T08:10:52.393Z,22.4200
2023-09-07T08:11:54.547Z,22.4200
2023-09-07T08:12:56.716Z,22.4000
2023-09-07T08:13:58.882Z,22.4000
2023-09-07T08:15:01.018Z,22.4100
2023-09-07T08:16:03.383Z,22.4300
2023-09-07T08:17:05.523Z,22.4600
2023-09-07T08:18:07.736Z,22.4900
2023-09-07T08:19:09.752Z,22.5100
2023-09-07T08:20:11.870Z,22.5300
2023-09-07T08:21:14.044Z,22.5400
2023-09-07T08:22:16.274Z,22.5600
2023-09-07T08:23:18.420Z,22.5700
2023-09-07T08:24:20.588Z,22.5700
2023-09-07T08:25:22.845Z,22.5800
2023-09-07T08:26:24.951Z,22.5800
2023-09-07T08:27:27.072Z,22.5900
2023-09-07T08:28:29.420Z,22.5900
2023-09-07T08:29:31.407Z,22.6000
2023-09-07T08:30:33.585Z,22.6000
2023-09-07T08:31:35.775Z,22.6100
2023-09-07T08:32:38.044Z,22.6100
2023-09-07T08:33:40.234Z,22.6100
2023-09-07T08:34:42.179Z,22.6300
2023-09-07T08:35:44.346Z,22.6300
2023-09-07T08:36:46.488Z,22.6500
2023-09-07T08:37:48.714Z,22.6500
2023-09-07T08:38:50.914Z,22.6600
2023-09-07T08:39:53.023Z,22.6800
2023-09-07T08:40:55.210Z,22.7000
2023-09-07T08:42:01.294Z,22.7100
2023-09-07T08:42:57.426Z,22.7300
2023-09-07T08:43:59.605Z,22.7500
2023-09-07T08:45:01.755Z,22.7700
2023-09-07T08:46:04.066Z,22.7800
2023-09-07T08:47:06.160Z,22.7900
2023-09-07T08:48:08.479Z,22.7900
2023-09-07T08:49:10.665Z,22.8000
2023-09-07T08:50:12.745Z,22.8000
2023-09-07T08:51:14.940Z,22.8100
2023-09-07T08:52:17.239Z,22.8200
2023-09-07T08:53:19.392Z,22.8300
2023-09-07T08:54:21.680Z,22.8300
2023-09-07T08:55:23.828Z,22.8400
2023-09-07T08:56:26.045Z,22.8400
2023-09-07T08:57:28.218Z,22.8400
2023-09-07T08:58:30.699Z,22.8500
2023-09-07T08:59:32.617Z,22.8600
2023-09-07T09:00:32.693Z,22.8600
2023-09-07T09:01:34.931Z,22.8800
2023-09-07T09:02:37.313Z,22.8900
2023-09-07T09:03:39.573Z,22.9200
2023-09-07T09:04:41.658Z,22.9300
2023-09-07T09:05:43.761Z,22.9400
2023-09-07T09:06:45.988Z,22.9400
2023-09-07T09:07:48.234Z,22.9400
2023-09-07T09:08:50.571Z,22.9500
2023-09-07T09:09:52.682Z,22.9600
2023-09-07T09:10:54.853Z,22.9700
2023-09-07T09:11:57.072Z,22.9800
2023-09-07T09:12:59.280Z,22.9900
2023-09-07T09:14:01.490Z,22.9900
2023-09-07T09:15:03.804Z,23.0000
2023-09-07T09:16:03.775Z,23.0000
2023-09-07T09:17:05.932Z,23.0000
2023-09-07T09:18:08.169Z,23.0100
2023-09-07T09:19:10.264Z,23.0100
2023-09-07T09:20:12.483Z,23.0200
2023-09-07T09:21:14.698Z,23.0300
2023-09-07T09:22:16.882Z,23.0300
2023-09-07T09:23:19.189Z,23.0300
2023-09-07T09:24:21.319Z,23.0300
2023-09-07T09:25:23.762Z,23.0300
2023-09-07T09:26:28.686Z,23.0400
2023-09-07T09:27:27.910Z,23.0500
2023-09-07T09:28:30.568Z,23.0800
2023-09-07T09:29:32.388Z,23.1000
2023-09-07T09:30:34.580Z,23.1300
2023-09-07T09:31:36.877Z,23.1600
2023-09-07T09:32:39.030Z,23.1900
2023-09-07T09:33:41.400Z,23.2200
2023-09-07T09:34:43.461Z,23.2400
2023-09-07T09:35:45.717Z,23.2400
2023-09-07T09:36:47.900Z,23.2500
2023-09-07T09:37:50.206Z,23.2500
2023-09-07T09:38:52.276Z,23.2500
2023-09-07T09:39:54.523Z,23.2400
2023-09-07T09:40:54.660Z,23.2300
2023-09-07T09:41:56.826Z,23.2300
2023-09-07T09:42:59.039Z,23.2200
2023-09-07T09:44:01.230Z,23.2100
2023-09-07T09:45:03.418Z,23.2100
2023-09-07T09:46:09.190Z,23.2100
2023-09-07T09:47:07.962Z,23.2000
2023-09-07T09:48:10.217Z,23.2000
2023-09-07T09:49:12.318Z,23.2100
2023-09-07T09:50:14.514Z,23.2100
2023-09-07T09:51:16.659Z,23.2200
2023-09-07T09:52:18.849Z,23.2100
2023-09-07T09:53:21.115Z,23.2100
2023-09-07T09:54:23.413Z,23.2100
2023-09-07T09:55:25.419Z,23.2100
2023-09-07T09:56:27.696Z,23.2100
2023-09-07T09:57:31.499Z,23.2100
2023-09-07T09:58:30.154Z,23.2100
2023-09-07T09:59:32.163Z,23.2100
2023-09-07T10:00:34.388Z,23.2100
2023-09-07T10:01:36.703Z,23.2100
2023-09-07T10:02:38.811Z,23.2100
2023-09-07T10:03:41.008Z,23.2100
2023-09-07T10:04:43.305Z,23.2100
2023-09-07T10:05:45.437Z,23.2100
2023-09-07T10:06:47.583Z,23.2100
2023-09-07T10:07:49.756Z,23.2200
2023-09-07T10:08:51.911Z,23.2200
2023-09-07T10:09:54.073Z,23.2200
2023-09-07T10:10:56.314Z,23.2300
2023-09-07T10:11:58.417Z,23.2300
2023-09-07T10:13:00.549Z,23.2300
2023-09-07T10:14:02.725Z,23.2300
2023-09-07T10:15:04.858Z,23.2300
2023-09-07T10:16:07.034Z,23.2300
2023-09-07T10:17:09.227Z,23.2400
2023-09-07T10:18:11.423Z,23.2400
2023-09-07T10:19:13.582Z,23.2400
2023-09-07T10:20:16.106Z,23.2500
2023-09-07T10:21:15.842Z,23.2500
2023-09-07T10:22:18.080Z,23.2500
2023-09-07T10:23:20.267Z,23.2500
2023-09-07T10:24:22.439Z,23.2600
2023-09-07T10:25:24.642Z,23.2600
2023-09-07T10:26:26.824Z,23.2700
2023-09-07T10:27:29.088Z,23.2700
2023-09-07T10:28:31.484Z,23.2800
2023-09-07T10:29:33.396Z,23.2800
2023-09-07T10:30:35.753Z,23.2900
2023-09-07T10:31:53.303Z,23.2900
2023-09-07T10:32:40.066Z,23.2900
2023-09-07T10:33:42.418Z,23.3000
2023-09-07T10:34:44.535Z,23.3100
2023-09-07T10:35:46.797Z,23.3200
2023-09-07T10:36:46.826Z,23.3300
2023-09-07T10:37:49.100Z,23.3300
2023-09-07T10:38:51.288Z,23.3300
2023-09-07T10:39:53.504Z,23.3400
2023-09-07T10:40:55.554Z,23.3400
2023-09-07T10:41:57.660Z,23.3500
2023-09-07T10:42:59.815Z,23.3500
2023-09-07T10:44:02.073Z,23.3600
2023-09-07T10:45:04.368Z,23.3600
2023-09-07T10:46:06.658Z,23.3700
2023-09-07T10:47:08.742Z,23.3700
2023-09-07T10:48:11.022Z,23.3700
2023-09-07T10:49:13.140Z,23.3700
2023-09-07T10:50:15.358Z,23.3800
2023-09-07T10:51:15.579Z,23.3800
2023-09-07T10:52:17.825Z,23.3800
2023-09-07T10:53:19.956Z,23.3800
2023-09-07T10:54:22.157Z,23.3900
2023-09-07T10:55:24.366Z,23.3900
2023-09-07T10:56:26.623Z,23.3900
2023-09-07T10:57:28.825Z,23.3900
2023-09-07T10:58:31.490Z,23.4000
2023-09-07T10:59:33.374Z,23.4000
2023-09-07T11:00:35.528Z,23.4000
2023-09-07T11:01:37.857Z,23.4100
2023-09-07T11:02:40.179Z,23.4100
2023-09-07T11:03:40.204Z,23.4100
2023-09-07T11:04:42.474Z,23.4200
2023-09-07T11:05:44.673Z,23.4200
2023-09-07T11:06:46.981Z,23.4200
2023-09-07T11:07:49.167Z,23.4300
2023-09-07T11:08:51.656Z,23.4300
2023-09-07T11:09:53.714Z,23.4300
2023-09-07T11:10:53.838Z,23.4400
2023-09-07T11:11:56.096Z,23.4400
2023-09-07T11:12:58.335Z,23.4400
2023-09-07T11:14:00.553Z,23.4400
2023-09-07T11:15:02.818Z,23.4500
2023-09-07T11:16:05.116Z,23.4600
2023-09-07T11:17:07.186Z,23.4600
2023-09-07T11:18:09.441Z,23.4600
2023-09-07T11:19:11.757Z,23.4600
2023-09-07T11:20:13.865Z,23.4700
2023-09-07T11:21:16.091Z,23.4700
2023-09-07T11:22:18.310Z,23.4800
2023-09-07T11:23:20.483Z,23.4800
2023-09-07T11:24:20.557Z,23.4800
2023-09-07T11:25:22.770Z,23.4800
2023-09-07T11:26:25.001Z,23.4800
2023-09-07T11:27:27.256Z,23.4800
2023-09-07T11:28:29.421Z,23.4800
2023-09-07T11:29:31.668Z,23.4900
2023-09-07T11:30:31.699Z,23.5000
2023-09-07T11:31:34.030Z,23.5000
2023-09-07T11:32:36.266Z,23.5100
2023-09-07T11:33:38.329Z,23.5200
2023-09-07T11:34:40.610Z,23.5200
2023-09-07T11:35:42.720Z,23.5200
2023-09-07T11:36:44.965Z,23.5300
2023-09-07T11:37:47.186Z,23.5300
2023-09-07T11:38:49.374Z,23.5400
2023-09-07T11:39:51.675Z,23.5400
2023-09-07T11:40:53.858Z,23.5500
2023-09-07T11:41:56.119Z,23.5500
2023-09-07T11:42:56.246Z,23.5600
2023-09-07T11:43:58.479Z,23.5600
2023-09-07T11:45:00.841Z,23.5600
2023-09-07T11:46:03.082Z,23.5700
2023-09-07T11:47:05.211Z,23.5700
2023-09-07T11:48:07.547Z,23.5700
2023-09-07T11:49:09.741Z,23.5800
2023-09-07T11:50:12.003Z,23.5800
2023-09-07T11:51:14.214Z,23.5800
2023-09-07T11:52:16.502Z,23.5900
2023-09-07T11:53:16.643Z,23.5900
2023-09-07T11:54:18.883Z,23.5900
2023-09-07T11:55:21.189Z,23.6000
2023-09-07T11:56:23.482Z,23.6000
2023-09-07T11:57:25.680Z,23.6000
2023-09-07T11:58:30.359Z,23.6100
2023-09-07T11:59:33.859Z,23.6100
2023-09-07T12:00:32.732Z,23.6000
2023-09-07T12:01:32.623Z,23.6200
2023-09-07T12:02:34.928Z,23.6200
2023-09-07T12:03:37.250Z,23.6300
2023-09-07T12:04:41.374Z,23.6400
2023-09-07T12:05:41.459Z,23.6400
2023-09-07T12:06:43.665Z,23.6600
2023-09-07T12:07:45.970Z,23.6700
2023-09-07T12:08:48.217Z,23.6800
2023-09-07T12:09:50.446Z,23.6800
2023-09-07T12:10:52.726Z,23.6800
2023-09-07T12:11:54.940Z,23.6900
2023-09-07T12:12:57.117Z,23.7000
2023-09-07T12:13:59.305Z,23.7000
2023-09-07T12:15:01.447Z,23.7100
2023-09-07T12:16:04.014Z,23.7200
2023-09-07T12:17:05.794Z,23.7200
2023-09-07T12:18:07.965Z,23.7300
2023-09-07T12:19:10.045Z,23.7300
2023-09-07T12:20:12.463Z,23.7400
2023-09-07T12:21:14.507Z,23.7400
2023-09-07T12:22:16.688Z,23.7400
2023-09-07T12:23:18.955Z,23.7500
2023-09-07T12:24:21.270Z,23.7600
2023-09-07T12:25:23.409Z,23.7600
2023-09-07T12:26:25.678Z,23.7700
2023-09-07T12:27:30.041Z,23.7700
2023-09-07T12:28:30.134Z,23.7600
2023-09-07T12:29:32.390Z,23.7700
2023-09-07T12:30:32.395Z,23.7800
2023-09-07T12:31:34.775Z,23.7900
2023-09-07T12:32:36.967Z,23.7900
2023-09-07T12:33:39.213Z,23.8000
2023-09-07T12:34:41.405Z,23.8000
2023-09-07T12:35:43.659Z,23.8100
2023-09-07T12:36:45.960Z,23.8100
2023-09-07T12:37:48.180Z,23.8200
2023-09-07T12:38:50.312Z,23.8200
2023-09-07T12:39:52.677Z,23.8300
2023-09-07T12:40:54.701Z,23.8300